Aérodrome :







RETROUVEZ-NOUS SUR...

 
LOGIN :

S'inscrire | Disclaimer

   EN    FR    IT 

 









Légende :    VFR   VFR Marginal   IFR   IFR Intensif   IFR Très Intensif
Visi : 
Plafond : 
>= 8 km
>= 3000ft
5 à 8 km
1000 à 3000 ft
1500m à 5 km
500 à 1000 ft
800 à 1500m
200 à 500 ft
< 800m
< 200 ft
Symboles :   Orages  Brouillard  Fortes neiges  Fortes précipitations  Vent > 20 kt






- Altitude de l'aérodrome : 29 ft
- Code IATA : CUR


TNCC - Willemstad/Hato Int.

DERNIER METAR :
  • 310100Z 10013KT CAVOK 28/23 Q1013 NOSIG

METARs EXPIRÉS :
  • 310000Z 10011KT CAVOK 28/24 Q1013 NOSIG
  • 302300Z 09013KT CAVOK 28/23 Q1012 NOSIG

TAF TAF TNCC
Valide du 31 à 00h jusqu'au 01 à 00h UTC


302301Z 3100/3124 10013KT 9999 FEW018
TEMPO 3112/3124 BKN014
FIR TNCF / Amérique du Nord



MET'MAP, la Météo Aéronautique d'un coup d'oeil ! - Copyright ORBIFLY Décembre 2007 - Disclaimer

ORBIFLY MET'MAP TEAM :

Programmation & Développement : Alexandra Zaïnal
Sur une idée originale de : Baudouin d'Aumeries
Assistance à la programmation : Marc-Olivier Méhu
Soutien technique & logistique : Manuel Goepfert

Contact : metmap@orbifly.com




SOURCES & CREDITS :

   NOAA